Weather at Ula Platform

Public forecast

Using degrees Celsius for public forecast. Weather courtesy of forecast.io.

Current aviation weather report (METAR) for Ula Platform

Retrieved 2022/01/17 10:20 UTC (40 minutes ago):

ENLA 171020Z AUTO 31017KT 9999NDV OVC012/// 08/06 Q1028 W///S5

Closest aviation forecast (TAF) to Ula Platform

Closest forecast is Stavanger Airport, Sola, 138.2 nm (256.0 km) NE. Retrieved 2022/01/17 06:59 UTC (4 hours ago):

TAF ENZV 170500Z 1706/1806 33018KT 9999 -SHRA FEW015 BKN030 TEMPO 1706/1709 33030G40KT BECMG 1715/1718 VRB05KT TEMPO 1720/1806 4000 DZRA BKN010